createdAt,value
2022-10-05T00:02:49.249Z,99.90
2022-10-05T00:07:52.314Z,99.90
2022-10-05T00:12:54.145Z,99.90
2022-10-05T00:17:56.268Z,99.90
2022-10-05T00:23:01.432Z,99.90
2022-10-05T00:28:03.324Z,99.90
2022-10-05T00:33:05.157Z,99.90
2022-10-05T00:38:07.143Z,99.90
2022-10-05T00:43:30.220Z,99.90
2022-10-05T00:48:42.645Z,99.90
2022-10-05T00:54:01.169Z,99.90
2022-10-05T00:59:44.100Z,99.90
2022-10-05T01:04:52.925Z,99.90
2022-10-05T01:10:00.944Z,99.90
2022-10-05T01:15:10.063Z,99.90
2022-10-05T01:20:19.756Z,99.90
2022-10-05T01:25:26.306Z,99.90
2022-10-05T01:30:33.985Z,99.90
2022-10-05T01:35:53.895Z,99.90
2022-10-05T01:41:23.008Z,99.90
2022-10-05T01:46:46.463Z,99.90
2022-10-05T01:52:24.559Z,99.90
2022-10-05T01:57:39.074Z,99.90
2022-10-05T02:02:48.875Z,99.90
2022-10-05T02:08:16.792Z,99.90
2022-10-05T02:13:27.016Z,99.90
2022-10-05T02:18:33.592Z,99.90
2022-10-05T02:23:39.321Z,99.90
2022-10-05T02:28:52.323Z,99.90
2022-10-05T02:34:24.616Z,99.90
2022-10-05T02:39:37.523Z,99.90
2022-10-05T02:44:48.950Z,99.90
2022-10-05T02:49:55.173Z,99.90
2022-10-05T02:55:10.433Z,99.90
2022-10-05T03:00:18.533Z,99.90
2022-10-05T03:05:22.535Z,99.90
2022-10-05T03:10:35.369Z,99.90
2022-10-05T03:15:37.169Z,99.90
2022-10-05T03:20:44.351Z,99.90
2022-10-05T03:26:01.457Z,99.90
2022-10-05T03:31:20.301Z,99.90
2022-10-05T03:36:44.863Z,99.90
2022-10-05T03:42:09.437Z,99.90
2022-10-05T03:47:40.835Z,99.90
2022-10-05T03:52:49.191Z,99.90
2022-10-05T03:57:52.678Z,99.90
2022-10-05T04:03:03.992Z,99.90
2022-10-05T04:08:17.029Z,99.90
2022-10-05T04:13:24.355Z,99.90
2022-10-05T04:18:34.323Z,99.90
2022-10-05T04:23:40.131Z,99.90
2022-10-05T04:28:52.925Z,99.90
2022-10-05T04:34:04.287Z,99.90
2022-10-05T04:39:21.257Z,99.90
2022-10-05T04:44:37.989Z,99.90
2022-10-05T04:50:07.732Z,99.90
2022-10-05T04:55:30.801Z,99.90
2022-10-05T05:01:00.863Z,99.90
2022-10-05T05:06:17.489Z,99.90
2022-10-05T05:11:42.896Z,99.90
2022-10-05T05:16:46.392Z,99.90
2022-10-05T05:22:07.889Z,99.90
2022-10-05T05:27:32.938Z,99.90
2022-10-05T05:32:53.074Z,99.90
2022-10-05T05:38:27.000Z,99.90
2022-10-05T05:43:53.212Z,99.90
2022-10-05T05:48:56.885Z,99.90
2022-10-05T05:54:24.320Z,99.90
2022-10-05T05:59:43.113Z,99.90
2022-10-05T06:04:49.638Z,99.90
2022-10-05T06:09:54.996Z,99.90
2022-10-05T06:15:01.829Z,99.90
2022-10-05T06:20:09.705Z,99.90
2022-10-05T06:25:11.558Z,99.90
2022-10-05T06:30:15.343Z,99.90
2022-10-05T06:35:17.149Z,99.90
2022-10-05T06:40:46.760Z,99.90
2022-10-05T06:45:59.225Z,99.90
2022-10-05T06:51:15.938Z,99.90
2022-10-05T06:56:41.349Z,99.90
2022-10-05T07:01:59.141Z,99.90
2022-10-05T07:07:10.465Z,99.90
2022-10-05T07:12:53.797Z,99.90
2022-10-05T07:18:32.073Z,99.90
2022-10-05T07:23:53.072Z,99.90
2022-10-05T07:29:07.064Z,99.90
2022-10-05T07:34:20.904Z,99.90
2022-10-05T07:39:58.499Z,99.90
2022-10-05T07:45:24.640Z,99.80
2022-10-05T07:50:28.234Z,99.60
2022-10-05T07:55:37.112Z,99.90
2022-10-05T08:00:51.469Z,99.90
2022-10-05T08:05:53.416Z,99.90
2022-10-05T08:11:03.195Z,99.00
2022-10-05T08:16:12.770Z,98.90
2022-10-05T08:21:17.545Z,97.30
2022-10-05T08:26:55.101Z,95.40
2022-10-05T08:32:12.867Z,93.50
2022-10-05T08:37:18.315Z,92.00
2022-10-05T08:42:41.938Z,92.00
2022-10-05T08:48:09.564Z,91.40
2022-10-05T08:53:20.060Z,91.30
2022-10-05T08:58:30.852Z,90.40
2022-10-05T09:03:50.938Z,91.50
2022-10-05T09:09:22.011Z,92.10
2022-10-05T09:14:26.654Z,93.30
2022-10-05T09:19:53.463Z,92.10
2022-10-05T09:25:19.882Z,93.70
2022-10-05T09:30:28.774Z,92.90
2022-10-05T09:35:57.316Z,92.90
2022-10-05T09:41:11.683Z,92.20
2022-10-05T09:46:31.356Z,88.80
2022-10-05T09:51:51.904Z,86.50
2022-10-05T09:57:11.981Z,87.40
2022-10-05T10:02:40.141Z,86.70
2022-10-05T10:07:57.984Z,89.10
2022-10-05T10:13:05.855Z,91.50
2022-10-05T10:18:26.422Z,92.50
2022-10-05T10:24:01.164Z,93.20
2022-10-05T10:29:18.356Z,91.60
2022-10-05T10:34:41.863Z,90.00
2022-10-05T10:39:55.806Z,87.60
2022-10-05T10:45:15.173Z,87.90
2022-10-05T10:50:28.319Z,89.20
2022-10-05T10:56:07.204Z,89.00
2022-10-05T11:01:40.798Z,85.90
2022-10-05T11:07:13.279Z,85.30
2022-10-05T11:12:22.055Z,82.70
2022-10-05T11:17:58.620Z,81.10
2022-10-05T11:23:23.688Z,81.40
2022-10-05T11:28:37.914Z,84.80
2022-10-05T11:33:54.994Z,85.00
2022-10-05T11:39:06.024Z,83.40
2022-10-05T11:44:26.155Z,82.30
2022-10-05T11:49:30.971Z,80.50
2022-10-05T11:55:11.721Z,80.90
2022-10-05T12:00:16.159Z,82.10
2022-10-05T12:05:23.999Z,81.00
2022-10-05T12:10:44.138Z,81.30
2022-10-05T12:16:10.407Z,82.70
2022-10-05T12:21:41.160Z,83.20
2022-10-05T12:27:07.572Z,85.70
2022-10-05T12:32:36.180Z,82.50
2022-10-05T12:37:41.035Z,83.20
2022-10-05T12:43:10.801Z,83.20
2022-10-05T12:48:16.152Z,83.20
2022-10-05T12:53:33.245Z,82.30
2022-10-05T12:58:53.219Z,82.60
2022-10-05T13:04:04.295Z,84.30
2022-10-05T13:09:15.708Z,83.70
2022-10-05T13:14:55.689Z,82.60
2022-10-05T13:20:02.489Z,84.40
2022-10-05T13:25:13.394Z,85.90
2022-10-05T13:30:17.216Z,85.00
2022-10-05T13:35:22.161Z,86.10
2022-10-05T13:40:39.793Z,85.10
2022-10-05T13:46:02.916Z,84.40
2022-10-05T13:51:15.041Z,84.90
2022-10-05T13:56:26.535Z,85.50
2022-10-05T14:01:49.345Z,85.80
2022-10-05T14:06:54.539Z,86.00
2022-10-05T14:12:05.385Z,86.00
2022-10-05T14:17:16.085Z,86.70
2022-10-05T14:22:24.169Z,86.60
2022-10-05T14:27:32.441Z,87.30
2022-10-05T14:32:48.005Z,87.80
2022-10-05T14:38:00.721Z,88.60
2022-10-05T14:43:22.862Z,90.10
2022-10-05T14:48:28.713Z,90.30
2022-10-05T14:53:38.514Z,90.50
2022-10-05T14:59:25.768Z,91.10
2022-10-05T15:04:36.963Z,91.20
2022-10-05T15:09:44.412Z,92.00
2022-10-05T15:14:47.580Z,92.70
2022-10-05T15:20:07.511Z,93.40
2022-10-05T15:25:27.530Z,93.80
2022-10-05T15:30:32.568Z,94.30
2022-10-05T15:36:02.301Z,95.20
2022-10-05T15:41:22.531Z,96.10
2022-10-05T15:46:34.217Z,96.50
2022-10-05T15:51:50.750Z,96.00
2022-10-05T15:57:31.395Z,96.70
2022-10-05T16:03:02.883Z,96.90
2022-10-05T16:08:23.477Z,97.10
2022-10-05T16:13:36.735Z,97.60
2022-10-05T16:18:42.167Z,97.70
2022-10-05T16:24:05.065Z,98.00
2022-10-05T16:29:39.815Z,98.30
2022-10-05T16:35:03.039Z,98.80
2022-10-05T16:40:44.707Z,99.20
2022-10-05T16:46:01.940Z,99.70
2022-10-05T16:51:21.413Z,99.90
2022-10-05T16:56:29.063Z,99.90
2022-10-05T17:01:44.713Z,99.90
2022-10-05T17:07:06.186Z,99.90
2022-10-05T17:12:20.438Z,99.90
2022-10-05T17:17:52.256Z,99.90
2022-10-05T17:23:18.639Z,99.90
2022-10-05T17:28:37.038Z,99.90
2022-10-05T17:34:17.997Z,99.90
2022-10-05T17:39:22.350Z,99.90
2022-10-05T17:44:26.101Z,99.90
2022-10-05T17:50:18.367Z,99.90
2022-10-05T17:55:31.472Z,99.90
2022-10-05T18:00:56.025Z,99.90
2022-10-05T18:06:24.345Z,99.90
2022-10-05T18:11:30.491Z,99.90
2022-10-05T18:17:09.667Z,99.90
2022-10-05T18:22:17.444Z,99.90
2022-10-05T18:27:34.219Z,99.90
2022-10-05T18:32:59.781Z,99.90
2022-10-05T18:38:26.717Z,99.90
2022-10-05T18:43:40.861Z,99.90
2022-10-05T18:48:48.837Z,99.90
2022-10-05T18:53:59.499Z,99.90
2022-10-05T18:59:13.351Z,99.90
2022-10-05T19:04:26.495Z,99.90
2022-10-05T19:09:28.232Z,99.90
2022-10-05T19:14:36.273Z,99.90
2022-10-05T19:19:56.922Z,99.90
2022-10-05T19:25:29.348Z,99.90
2022-10-05T19:30:53.366Z,99.90
2022-10-05T19:35:58.533Z,99.90
2022-10-05T19:41:22.925Z,99.90
2022-10-05T19:46:45.304Z,99.90
2022-10-05T19:52:01.699Z,99.90
2022-10-05T19:57:19.015Z,99.90
2022-10-05T20:02:25.876Z,99.90
2022-10-05T20:07:27.861Z,99.90
2022-10-05T20:12:59.952Z,99.90
2022-10-05T20:18:56.032Z,99.90
2022-10-05T20:24:08.249Z,99.90
2022-10-05T20:29:10.147Z,99.90
2022-10-05T20:34:15.652Z,99.90
2022-10-05T20:39:26.778Z,99.90
2022-10-05T20:44:29.311Z,99.90
2022-10-05T20:49:32.159Z,99.90
2022-10-05T20:54:34.035Z,99.90
2022-10-05T20:59:38.645Z,99.90
2022-10-05T21:04:42.327Z,99.90
2022-10-05T21:09:44.779Z,99.90
2022-10-05T21:14:47.442Z,99.90
2022-10-05T21:19:49.351Z,99.90
2022-10-05T21:24:51.416Z,99.90
2022-10-05T21:29:53.240Z,99.90
2022-10-05T21:34:55.213Z,99.90
2022-10-05T21:39:57.028Z,99.90
2022-10-05T21:44:58.911Z,99.90
2022-10-05T21:50:03.581Z,99.90
2022-10-05T21:55:06.189Z,99.90
2022-10-05T22:00:08.789Z,99.90
2022-10-05T22:05:11.131Z,99.90
2022-10-05T22:10:13.133Z,99.90
2022-10-05T22:15:16.170Z,99.90
2022-10-05T22:20:20.305Z,99.90
2022-10-05T22:25:22.645Z,99.90
2022-10-05T22:30:24.462Z,99.90
2022-10-05T22:35:27.491Z,99.90
2022-10-05T22:40:29.835Z,99.90
2022-10-05T22:45:32.691Z,99.90
2022-10-05T22:50:34.781Z,99.90
2022-10-05T22:55:36.694Z,99.90
2022-10-05T23:00:57.457Z,99.90
2022-10-05T23:06:04.932Z,99.90
2022-10-05T23:11:08.645Z,99.90
2022-10-05T23:16:10.563Z,99.90
2022-10-05T23:21:12.478Z,99.90
2022-10-05T23:26:15.188Z,99.90
2022-10-05T23:31:19.614Z,99.90
2022-10-05T23:36:24.224Z,99.90
2022-10-05T23:41:26.087Z,99.90
2022-10-05T23:46:28.024Z,99.90
2022-10-05T23:51:29.967Z,99.90
2022-10-05T23:56:32.020Z,99.90
